Time;durP1;ratioP1;P1;durP2;ratioP2;P2;SDS_P1;SDS_P2;PMS_P1;PMS_P2;Temp;Humidity;BMP_temperature;BMP_pressure;BME280_temperature;BME280_humidity;BME280_pressure;Samples;Min_cycle;Max_cycle;Signal;HPM_P1;HPM_P2
2022/01/29 00:01:24;;;;;;;;;;;6.40;99.90;;;;;;4981268;28;19926;-55
2022/01/29 00:03:50;;;;;;;;;;;7.00;99.90;;;;;;4983940;28;20295;-55
2022/01/29 00:06:16;;;;;;;;;;;6.50;99.90;;;;;;4994346;28;19944;-59
2022/01/29 00:08:43;;;;;;;;;;;6.50;99.90;;;;;;4986192;28;20538;-56
2022/01/29 00:11:12;;;;;;;;;;;6.50;99.90;;;;;;4983242;28;20012;-55
2022/01/29 00:13:38;;;;;;;;;;;6.50;99.90;;;;;;4983886;28;19976;-55
2022/01/29 00:16:04;;;;;;;;;;;6.50;99.90;;;;;;4983835;28;19981;-56
2022/01/29 00:18:30;;;;;;;;;;;6.50;99.90;;;;;;4967718;28;19976;-55
2022/01/29 00:20:55;;;;;;;;;;;6.50;99.90;;;;;;4980636;28;19992;-55
2022/01/29 00:23:21;;;;;;;;;;;6.60;99.90;;;;;;4986423;28;19930;-55
2022/01/29 00:25:46;;;;;;;;;;;6.50;99.90;;;;;;4986606;28;19984;-54
2022/01/29 00:28:13;;;;;;;;;;;6.50;99.90;;;;;;4986673;28;19976;-61
2022/01/29 00:30:39;;;;;;;;;;;6.50;99.90;;;;;;4985033;28;19930;-59
2022/01/29 00:33:05;;;;;;;;;;;6.50;99.90;;;;;;4987047;28;20368;-55
2022/01/29 00:35:31;;;;;;;;;;;6.50;99.90;;;;;;4982429;28;19930;-55
2022/01/29 00:37:56;;;;;;;;;;;6.50;99.90;;;;;;4967551;28;19948;-55
2022/01/29 00:40:22;;;;;;;;;;;6.50;99.90;;;;;;4986685;28;19941;-55
2022/01/29 00:42:48;;;;;;;;;;;6.50;99.90;;;;;;4986418;28;20388;-54
2022/01/29 00:45:14;;;;;;;;;;;6.50;99.90;;;;;;4986671;28;19936;-57
2022/01/29 00:47:39;;;;;;;;;;;6.50;99.90;;;;;;4986314;28;19934;-55
2022/01/29 00:50:05;;;;;;;;;;;6.90;99.90;;;;;;4985865;28;19941;-55
2022/01/29 00:52:31;;;;;;;;;;;6.60;99.90;;;;;;4986872;28;19937;-55
2022/01/29 00:54:56;;;;;;;;;;;6.60;99.90;;;;;;4986642;28;19976;-54
2022/01/29 00:57:22;;;;;;;;;;;6.50;99.90;;;;;;4986678;28;19941;-55
2022/01/29 00:59:47;;;;;;;;;;;6.50;99.90;;;;;;4986575;28;19930;-57
2022/01/29 01:02:13;;;;;;;;;;;6.50;99.90;;;;;;4968474;28;20395;-54
2022/01/29 01:04:39;;;;;;;;;;;6.50;99.90;;;;;;4981136;28;20418;-55
2022/01/29 01:07:08;;;;;;;;;;;6.50;99.90;;;;;;5002966;28;20295;-55
2022/01/29 01:09:34;;;;;;;;;;;6.60;99.90;;;;;;5006078;28;19990;-54
2022/01/29 01:12:00;;;;;;;;;;;6.60;99.90;;;;;;5004350;28;20399;-56
2022/01/29 01:14:25;;;;;;;;;;;6.60;99.90;;;;;;4986332;28;19955;-57
2022/01/29 01:16:51;;;;;;;;;;;6.50;99.90;;;;;;4986293;28;19936;-59
2022/01/29 01:19:16;;;;;;;;;;;6.60;99.90;;;;;;4986074;28;19934;-55
2022/01/29 01:21:42;;;;;;;;;;;6.60;99.90;;;;;;4985955;28;19929;-56
2022/01/29 01:24:07;;;;;;;;;;;6.60;99.90;;;;;;4980912;28;19942;-58
2022/01/29 01:26:33;;;;;;;;;;;6.60;99.90;;;;;;4966920;28;19980;-57
2022/01/29 01:28:58;;;;;;;;;;;6.60;99.90;;;;;;4983927;28;19982;-55
2022/01/29 01:31:24;;;;;;;;;;;6.60;99.90;;;;;;5068049;28;19935;-55
2022/01/29 01:33:50;;;;;;;;;;;6.60;99.90;;;;;;5005347;28;19929;-57
2022/01/29 01:36:19;;;;;;;;;;;6.70;99.90;;;;;;5005658;28;19930;-55
2022/01/29 01:38:59;;;;;;;;;;;6.70;99.90;;;;;;4999139;28;19973;-56
2022/01/29 01:41:26;;;;;;;;;;;6.70;99.90;;;;;;4985909;28;20336;-55
2022/01/29 01:43:58;;;;;;;;;;;6.70;99.90;;;;;;4985989;28;19936;-55
2022/01/29 01:46:24;;;;;;;;;;;6.70;99.90;;;;;;4986189;28;20268;-56
2022/01/29 01:48:49;;;;;;;;;;;6.70;99.90;;;;;;4985965;28;19934;-55
2022/01/29 01:51:16;;;;;;;;;;;6.80;99.90;;;;;;4985915;28;19947;-55
2022/01/29 01:53:41;;;;;;;;;;;6.70;99.90;;;;;;4979473;28;19931;-55
2022/01/29 01:56:07;;;;;;;;;;;6.80;99.90;;;;;;4964823;28;19976;-56
2022/01/29 01:58:32;;;;;;;;;;;6.80;99.90;;;;;;4966700;28;19930;-55
2022/01/29 02:00:58;;;;;;;;;;;6.80;99.90;;;;;;4974528;28;19934;-55
2022/01/29 02:03:23;;;;;;;;;;;6.80;99.90;;;;;;4987680;28;20446;-56
2022/01/29 02:05:50;;;;;;;;;;;6.80;99.90;;;;;;4995245;28;20390;-58
2022/01/29 02:08:16;;;;;;;;;;;7.10;99.90;;;;;;5009089;28;19932;-56
2022/01/29 02:10:45;;;;;;;;;;;6.80;99.90;;;;;;5008875;28;19981;-55
2022/01/29 02:13:11;;;;;;;;;;;6.80;99.90;;;;;;4991881;28;19930;-62
2022/01/29 02:15:36;;;;;;;;;;;6.90;99.90;;;;;;4969662;28;19960;-59
2022/01/29 02:18:02;;;;;;;;;;;6.90;99.90;;;;;;4969731;28;20021;-56
2022/01/29 02:20:29;;;;;;;;;;;6.90;99.90;;;;;;4974568;28;19926;-59
2022/01/29 02:22:55;;;;;;;;;;;6.90;99.90;;;;;;4969468;28;19930;-59
2022/01/29 02:25:36;;;;;;;;;;;6.90;99.90;;;;;;4969552;28;19953;-56
2022/01/29 02:28:09;;;;;;;;;;;6.90;99.90;;;;;;4969586;28;20284;-56
2022/01/29 02:30:36;;;;;;;;;;;6.90;99.90;;;;;;4984562;28;20341;-56
2022/01/29 02:33:04;;;;;;;;;;;7.00;99.90;;;;;;4977466;28;20469;-61
2022/01/29 02:35:30;;;;;;;;;;;7.00;99.90;;;;;;4969105;28;19949;-55
2022/01/29 02:37:56;;;;;;;;;;;7.00;99.90;;;;;;4969757;28;19934;-59
2022/01/29 02:40:22;;;;;;;;;;;7.00;99.90;;;;;;4988301;28;19956;-55
2022/01/29 02:42:49;;;;;;;;;;;7.00;99.90;;;;;;4988154;28;19926;-55
2022/01/29 02:45:15;;;;;;;;;;;7.00;99.90;;;;;;4988721;28;19930;-54
2022/01/29 02:47:41;;;;;;;;;;;7.10;99.90;;;;;;4988037;28;20299;-56
2022/01/29 02:50:07;;;;;;;;;;;7.30;99.90;;;;;;4988890;28;19929;-56
2022/01/29 02:52:33;;;;;;;;;;;7.10;99.90;;;;;;4988698;28;20394;-55
2022/01/29 02:54:58;;;;;;;;;;;7.10;99.90;;;;;;4988692;28;20004;-55
2022/01/29 02:57:24;;;;;;;;;;;7.10;99.90;;;;;;4988646;28;19930;-55
2022/01/29 02:59:51;;;;;;;;;;;7.10;99.90;;;;;;4988049;28;19934;-55
2022/01/29 03:02:17;;;;;;;;;;;7.20;99.90;;;;;;4981692;28;19937;-55
2022/01/29 03:04:43;;;;;;;;;;;7.20;99.90;;;;;;4988401;28;19936;-56
2022/01/29 03:07:08;;;;;;;;;;;7.20;99.90;;;;;;5005578;28;20298;-55
2022/01/29 03:09:34;;;;;;;;;;;7.20;99.90;;;;;;5008093;28;19974;-55
2022/01/29 03:12:00;;;;;;;;;;;7.20;99.90;;;;;;5006235;28;20019;-55
2022/01/29 03:14:25;;;;;;;;;;;7.20;99.90;;;;;;4987682;28;19929;-55
2022/01/29 03:16:51;;;;;;;;;;;7.30;99.90;;;;;;4987676;28;20028;-55
2022/01/29 03:19:16;;;;;;;;;;;7.30;99.90;;;;;;4988311;28;19930;-55
2022/01/29 03:21:42;;;;;;;;;;;7.30;99.90;;;;;;4988056;28;19983;-55
2022/01/29 03:24:07;;;;;;;;;;;7.30;99.90;;;;;;4987132;28;19937;-55
2022/01/29 03:26:33;;;;;;;;;;;7.30;99.90;;;;;;4988118;28;19930;-55
2022/01/29 03:28:58;;;;;;;;;;;7.30;99.90;;;;;;4988000;28;19985;-65
2022/01/29 03:31:26;;;;;;;;;;;7.30;99.90;;;;;;4992727;28;19934;-55
2022/01/29 03:33:52;;;;;;;;;;;7.30;99.90;;;;;;5007610;28;19929;-55
2022/01/29 03:36:18;;;;;;;;;;;7.30;99.90;;;;;;5007505;28;19979;-55
2022/01/29 03:38:44;;;;;;;;;;;7.40;99.90;;;;;;5001954;28;19929;-55
2022/01/29 03:41:11;;;;;;;;;;;7.40;99.90;;;;;;4988066;28;20341;-60
2022/01/29 03:43:43;;;;;;;;;;;7.40;99.90;;;;;;4986868;28;20248;-58
2022/01/29 03:46:09;;;;;;;;;;;7.40;99.90;;;;;;4987810;28;19929;-62
2022/01/29 03:48:34;;;;;;;;;;;7.40;99.90;;;;;;4987421;28;20399;-65
2022/01/29 03:51:00;;;;;;;;;;;7.40;99.90;;;;;;4988029;28;19957;-65
2022/01/29 03:53:25;;;;;;;;;;;7.40;99.90;;;;;;4987374;28;19930;-65
2022/01/29 03:55:51;;;;;;;;;;;7.50;99.90;;;;;;4987447;28;20366;-66
2022/01/29 03:58:16;;;;;;;;;;;7.40;99.90;;;;;;4986735;28;19940;-56
2022/01/29 04:00:42;;;;;;;;;;;7.60;99.90;;;;;;4981509;28;19945;-55
2022/01/29 04:03:08;;;;;;;;;;;7.50;99.90;;;;;;4971486;28;19929;-61
2022/01/29 04:05:34;;;;;;;;;;;7.50;99.90;;;;;;4991513;28;19964;-55
2022/01/29 04:08:00;;;;;;;;;;;7.50;99.90;;;;;;5007032;28;19969;-55
2022/01/29 04:10:27;;;;;;;;;;;7.50;99.90;;;;;;5007553;28;19936;-55
2022/01/29 04:12:53;;;;;;;;;;;7.50;99.90;;;;;;5006701;28;19937;-55
2022/01/29 04:15:19;;;;;;;;;;;7.50;99.90;;;;;;4986978;28;20330;-55
2022/01/29 04:17:45;;;;;;;;;;;7.50;99.90;;;;;;4987148;28;19937;-57
2022/01/29 04:20:10;;;;;;;;;;;7.60;99.90;;;;;;4987289;28;20390;-55
2022/01/29 04:22:36;;;;;;;;;;;7.60;99.90;;;;;;4987557;28;19936;-55
2022/01/29 04:25:02;;;;;;;;;;;7.80;99.90;;;;;;4985727;28;20014;-55
2022/01/29 04:27:40;;;;;;;;;;;7.60;99.90;;;;;;4987227;28;19991;-55
2022/01/29 04:30:11;;;;;;;;;;;7.60;99.90;;;;;;5041102;28;19940;-56
2022/01/29 04:35:05;;;;;;;;;;;7.60;99.90;;;;;;5006321;28;19934;-55
2022/01/29 04:37:31;;;;;;;;;;;7.60;99.90;;;;;;5006761;28;20389;-55
2022/01/29 04:39:56;;;;;;;;;;;7.60;99.90;;;;;;4990561;28;20415;-56
2022/01/29 04:42:22;;;;;;;;;;;7.60;99.90;;;;;;4987373;28;20382;-56
2022/01/29 04:44:47;;;;;;;;;;;7.60;99.90;;;;;;4985670;28;19930;-58
2022/01/29 04:47:13;;;;;;;;;;;8.10;99.90;;;;;;4986949;28;20673;-58
2022/01/29 04:49:39;;;;;;;;;;;7.70;99.90;;;;;;4987405;28;19944;-55
2022/01/29 04:52:04;;;;;;;;;;;7.70;99.90;;;;;;4986724;28;19929;-56
2022/01/29 04:54:30;;;;;;;;;;;7.70;99.90;;;;;;4986486;28;19940;-57
2022/01/29 04:56:56;;;;;;;;;;;7.70;99.90;;;;;;4986593;28;20414;-56
2022/01/29 04:59:22;;;;;;;;;;;7.70;99.90;;;;;;4971363;28;19938;-60
2022/01/29 05:01:47;;;;;;;;;;;7.70;99.90;;;;;;5014592;28;19928;-61
2022/01/29 05:04:13;;;;;;;;;;;7.70;99.90;;;;;;5086775;28;19973;-54
2022/01/29 05:06:38;;;;;;;;;;;7.70;99.90;;;;;;5012612;28;19933;-55
2022/01/29 05:09:07;;;;;;;;;;;7.70;99.90;;;;;;5011559;28;19937;-55
2022/01/29 05:11:32;;;;;;;;;;;7.70;99.90;;;;;;5064764;28;20381;-56
2022/01/29 05:13:59;;;;;;;;;;;7.70;99.90;;;;;;4998057;28;19926;-56
2022/01/29 05:27:05;;;;;;;;;;;7.80;99.90;;;;;;4985771;28;19976;-55
2022/01/29 05:29:31;;;;;;;;;;;7.80;99.90;;;;;;4985949;28;20468;-56
2022/01/29 05:31:58;;;;;;;;;;;7.80;99.90;;;;;;4986155;28;19929;-57
2022/01/29 05:34:23;;;;;;;;;;;7.90;99.90;;;;;;4986623;28;19983;-55
2022/01/29 05:36:49;;;;;;;;;;;7.80;99.90;;;;;;4984880;28;19933;-56
2022/01/29 05:39:15;;;;;;;;;;;7.80;99.90;;;;;;4985726;28;19929;-56
2022/01/29 05:41:40;;;;;;;;;;;7.80;99.90;;;;;;4985755;28;19934;-55
2022/01/29 05:44:06;;;;;;;;;;;7.90;99.90;;;;;;4985928;28;19930;-56
2022/01/29 05:46:32;;;;;;;;;;;7.90;99.90;;;;;;4985879;28;20268;-58
2022/01/29 05:48:57;;;;;;;;;;;7.90;99.90;;;;;;4984763;28;19929;-55
2022/01/29 05:51:23;;;;;;;;;;;7.90;99.90;;;;;;4985838;28;19983;-55
2022/01/29 05:53:48;;;;;;;;;;;7.90;99.90;;;;;;4985992;28;19938;-55
2022/01/29 05:56:14;;;;;;;;;;;8.00;99.90;;;;;;4984499;28;20341;-55
2022/01/29 05:58:39;;;;;;;;;;;7.90;99.90;;;;;;4966832;28;19934;-64
2022/01/29 06:01:05;;;;;;;;;;;8.00;99.90;;;;;;4975570;28;20340;-55
2022/01/29 06:03:31;;;;;;;;;;;8.00;99.90;;;;;;4985376;28;19930;-59
2022/01/29 06:05:57;;;;;;;;;;;8.00;99.90;;;;;;4992592;28;19955;-67
2022/01/29 06:08:22;;;;;;;;;;;8.00;99.90;;;;;;5005604;28;20048;-61
2022/01/29 06:10:48;;;;;;;;;;;8.00;99.90;;;;;;5005410;28;19932;-56
2022/01/29 06:13:14;;;;;;;;;;;8.00;99.90;;;;;;4985580;28;19992;-55
2022/01/29 06:15:42;;;;;;;;;;;8.00;99.90;;;;;;4985531;28;19934;-54
2022/01/29 06:18:12;;;;;;;;;;;8.00;99.90;;;;;;4985747;28;19930;-55
2022/01/29 06:20:37;;;;;;;;;;;8.00;99.90;;;;;;4985756;28;19929;-59
2022/01/29 06:23:03;;;;;;;;;;;8.10;99.90;;;;;;4985758;28;20542;-57
2022/01/29 06:25:29;;;;;;;;;;;8.10;99.90;;;;;;4984732;28;19933;-62
2022/01/29 06:27:55;;;;;;;;;;;8.10;99.90;;;;;;4984713;28;20020;-56
2022/01/29 06:30:20;;;;;;;;;;;8.10;99.90;;;;;;5057428;28;19940;-55
2022/01/29 06:32:46;;;;;;;;;;;8.10;99.90;;;;;;5022093;28;20028;-57
2022/01/29 06:35:12;;;;;;;;;;;8.10;99.90;;;;;;5005266;28;20362;-56
2022/01/29 06:37:38;;;;;;;;;;;8.10;99.90;;;;;;5005042;28;20442;-60
2022/01/29 06:40:04;;;;;;;;;;;8.10;99.90;;;;;;4988625;28;19936;-55
2022/01/29 06:42:29;;;;;;;;;;;8.10;99.90;;;;;;4981181;28;19930;-57
2022/01/29 06:44:55;;;;;;;;;;;8.70;99.90;;;;;;4983284;28;19936;-59
2022/01/29 06:47:20;;;;;;;;;;;8.50;99.90;;;;;;4984479;28;19934;-55
2022/01/29 06:49:46;;;;;;;;;;;8.10;99.90;;;;;;4987697;28;19936;-62
2022/01/29 06:52:12;;;;;;;;;;;8.10;99.90;;;;;;4987935;28;19929;-55
2022/01/29 06:54:37;;;;;;;;;;;8.10;99.90;;;;;;4988202;28;19930;-57
2022/01/29 06:57:03;;;;;;;;;;;8.10;99.90;;;;;;4987076;28;19930;-55
2022/01/29 06:59:28;;;;;;;;;;;8.20;99.90;;;;;;4988159;28;19998;-55
2022/01/29 07:01:54;;;;;;;;;;;8.20;99.90;;;;;;4987510;28;19936;-58
2022/01/29 07:04:20;;;;;;;;;;;8.20;99.90;;;;;;4987106;28;20347;-55
2022/01/29 07:06:45;;;;;;;;;;;8.20;99.90;;;;;;4987772;28;19977;-61
2022/01/29 07:09:11;;;;;;;;;;;8.20;99.90;;;;;;4987938;28;19933;-55
2022/01/29 07:11:36;;;;;;;;;;;8.20;99.90;;;;;;4987409;28;19930;-55
2022/01/29 07:14:03;;;;;;;;;;;8.30;99.90;;;;;;4970863;28;19952;-55
2022/01/29 07:16:29;;;;;;;;;;;8.30;99.90;;;;;;4968633;28;19930;-55
2022/01/29 07:18:55;;;;;;;;;;;8.30;99.90;;;;;;4968697;28;19930;-55
2022/01/29 07:21:20;;;;;;;;;;;8.30;99.90;;;;;;4985417;28;19936;-55
2022/01/29 07:23:46;;;;;;;;;;;8.60;99.90;;;;;;4987642;28;20010;-66
2022/01/29 07:26:12;;;;;;;;;;;8.40;99.90;;;;;;4987701;28;19983;-66
2022/01/29 07:28:39;;;;;;;;;;;8.30;99.90;;;;;;5008352;28;19936;-66
2022/01/29 07:31:05;;;;;;;;;;;8.30;99.90;;;;;;5049669;28;19928;-65
2022/01/29 07:33:30;;;;;;;;;;;8.30;99.90;;;;;;4998738;28;19977;-54
2022/01/29 07:35:56;;;;;;;;;;;8.30;99.90;;;;;;4987640;28;19961;-55
2022/01/29 07:38:22;;;;;;;;;;;8.40;99.90;;;;;;4987832;28;19934;-55
2022/01/29 07:40:47;;;;;;;;;;;8.50;99.90;;;;;;4987008;28;19930;-61
2022/01/29 07:43:13;;;;;;;;;;;8.30;99.90;;;;;;4987152;28;19937;-56
2022/01/29 07:45:38;;;;;;;;;;;8.30;99.90;;;;;;4979309;28;19937;-55
2022/01/29 07:48:04;;;;;;;;;;;8.40;99.90;;;;;;4967864;28;20072;-55
2022/01/29 07:50:30;;;;;;;;;;;8.30;99.90;;;;;;4971094;28;19995;-56
2022/01/29 07:52:57;;;;;;;;;;;8.40;99.90;;;;;;4987522;28;19983;-56
2022/01/29 07:55:23;;;;;;;;;;;8.40;99.90;;;;;;4987053;28;19979;-56
2022/01/29 07:57:49;;;;;;;;;;;8.40;99.90;;;;;;4986684;28;20450;-56
2022/01/29 08:00:15;;;;;;;;;;;8.40;99.90;;;;;;4982272;28;20104;-61
2022/01/29 08:02:41;;;;;;;;;;;8.40;99.90;;;;;;4984767;28;20034;-62
2022/01/29 08:05:06;;;;;;;;;;;8.40;99.90;;;;;;4983071;28;20470;-62
2022/01/29 08:07:32;;;;;;;;;;;8.40;99.90;;;;;;5005343;28;19930;-64
2022/01/29 08:09:58;;;;;;;;;;;8.40;99.90;;;;;;4982310;28;20555;-61
2022/01/29 08:12:23;;;;;;;;;;;8.40;99.90;;;;;;4994417;28;19936;-59
2022/01/29 08:14:49;;;;;;;;;;;8.40;99.90;;;;;;4984098;28;19937;-62
2022/01/29 08:17:14;;;;;;;;;;;8.50;99.90;;;;;;4986909;28;20029;-59
2022/01/29 08:19:40;;;;;;;;;;;8.30;99.90;;;;;;4973473;28;19992;-62
2022/01/29 08:22:07;;;;;;;;;;;8.30;99.90;;;;;;4983036;28;19997;-59
2022/01/29 08:24:32;;;;;;;;;;;9.90;99.90;;;;;;4982456;28;19929;-55
2022/01/29 08:26:58;;;;;;;;;;;8.30;99.90;;;;;;4973709;28;19944;-55
2022/01/29 08:29:23;;;;;;;;;;;8.30;99.90;;;;;;4975179;28;19936;-55
2022/01/29 08:31:49;;;;;;;;;;;8.30;99.90;;;;;;4984657;28;19959;-56
2022/01/29 08:34:14;;;;;;;;;;;8.30;99.90;;;;;;4982750;28;20476;-55
2022/01/29 08:36:40;;;;;;;;;;;8.30;99.90;;;;;;4984928;28;20016;-57
2022/01/29 08:39:06;;;;;;;;;;;8.40;99.90;;;;;;4984269;28;20375;-57
2022/01/29 08:41:31;;;;;;;;;;;8.40;99.90;;;;;;4983702;28;20107;-55
2022/01/29 08:43:57;;;;;;;;;;;8.30;99.90;;;;;;4982951;28;20063;-55
2022/01/29 08:46:22;;;;;;;;;;;8.30;99.90;;;;;;4991072;28;19934;-54
2022/01/29 08:48:49;;;;;;;;;;;8.80;99.90;;;;;;4991927;28;20012;-57
2022/01/29 08:51:14;;;;;;;;;;;8.40;99.90;;;;;;4992033;28;19935;-54
2022/01/29 08:53:41;;;;;;;;;;;8.40;99.90;;;;;;5039398;28;19932;-55
2022/01/29 08:56:07;;;;;;;;;;;8.40;99.90;;;;;;4982381;28;20288;-55
2022/01/29 08:58:32;;;;;;;;;;;8.50;99.90;;;;;;5071301;28;19924;-55
2022/01/29 09:00:58;;;;;;;;;;;8.50;99.90;;;;;;4978156;28;19973;-55
2022/01/29 09:03:23;;;;;;;;;;;8.60;99.90;;;;;;4974391;28;20387;-59
2022/01/29 09:05:49;;;;;;;;;;;8.60;99.90;;;;;;4993133;28;20004;-57
2022/01/29 09:08:16;;;;;;;;;;;8.60;99.90;;;;;;4984901;28;19977;-56
2022/01/29 09:10:41;;;;;;;;;;;8.70;99.90;;;;;;4997524;28;19987;-56
2022/01/29 09:13:07;;;;;;;;;;;8.80;99.90;;;;;;4983061;28;19930;-57
2022/01/29 09:15:33;;;;;;;;;;;8.80;99.90;;;;;;4969489;28;19932;-62
2022/01/29 09:17:58;;;;;;;;;;;8.80;99.90;;;;;;4977160;28;20376;-60
2022/01/29 09:20:26;;;;;;;;;;;8.80;99.90;;;;;;4980349;28;20165;-61
2022/01/29 09:22:53;;;;;;;;;;;8.80;99.90;;;;;;4946590;28;19930;-59
2022/01/29 09:25:19;;;;;;;;;;;8.80;99.90;;;;;;4963698;28;19937;-60
2022/01/29 09:27:46;;;;;;;;;;;8.80;99.90;;;;;;4975262;28;19973;-57
2022/01/29 09:30:15;;;;;;;;;;;8.90;99.90;;;;;;4976558;28;19936;-58
2022/01/29 09:32:44;;;;;;;;;;;8.90;99.90;;;;;;4981302;28;19929;-58
2022/01/29 09:35:10;;;;;;;;;;;8.90;99.90;;;;;;4993712;28;20092;-59
2022/01/29 09:37:35;;;;;;;;;;;8.90;99.90;;;;;;4982779;28;20366;-59
2022/01/29 09:40:01;;;;;;;;;;;9.00;99.90;;;;;;4979857;28;19930;-60
2022/01/29 09:42:26;;;;;;;;;;;9.00;99.90;;;;;;4982640;28;20312;-62
2022/01/29 09:44:52;;;;;;;;;;;9.10;99.90;;;;;;4978675;28;19930;-62
2022/01/29 09:47:20;;;;;;;;;;;9.10;99.90;;;;;;4970822;28;19930;-62
2022/01/29 09:49:45;;;;;;;;;;;9.10;99.90;;;;;;4980089;28;20298;-58
2022/01/29 09:52:11;;;;;;;;;;;9.20;99.90;;;;;;4963863;28;19930;-61
2022/01/29 09:54:37;;;;;;;;;;;9.20;99.90;;;;;;4962968;28;19937;-57
2022/01/29 09:57:02;;;;;;;;;;;9.30;99.90;;;;;;4976490;28;19926;-58
2022/01/29 09:59:28;;;;;;;;;;;9.30;99.90;;;;;;4962997;28;19930;-55
2022/01/29 10:01:53;;;;;;;;;;;9.40;99.90;;;;;;4965939;28;19953;-57
2022/01/29 10:04:19;;;;;;;;;;;9.50;99.90;;;;;;4976596;28;20352;-55
2022/01/29 10:06:47;;;;;;;;;;;9.50;99.90;;;;;;4983924;28;19930;-55
2022/01/29 10:09:31;;;;;;;;;;;9.50;99.90;;;;;;4981449;28;20566;-57
2022/01/29 10:12:16;;;;;;;;;;;9.50;99.90;;;;;;4964704;28;19934;-58
2022/01/29 10:14:52;;;;;;;;;;;9.50;99.90;;;;;;4980859;28;19976;-55
2022/01/29 10:17:36;;;;;;;;;;;9.60;99.90;;;;;;4963881;28;19930;-55
2022/01/29 10:20:05;;;;;;;;;;;9.60;99.90;;;;;;4968193;28;20310;-65
2022/01/29 10:22:34;;;;;;;;;;;9.60;99.90;;;;;;4982764;28;19933;-58
2022/01/29 10:25:04;;;;;;;;;;;9.60;99.90;;;;;;4979504;28;19955;-60
2022/01/29 10:27:29;;;;;;;;;;;9.60;99.90;;;;;;4985559;28;19936;-55
2022/01/29 10:29:59;;;;;;;;;;;9.90;99.90;;;;;;5014852;28;19930;-61
2022/01/29 10:32:25;;;;;;;;;;;9.70;99.90;;;;;;4997955;28;19929;-63
2022/01/29 10:34:55;;;;;;;;;;;9.70;99.90;;;;;;4985939;28;19959;-62
2022/01/29 10:37:23;;;;;;;;;;;9.70;99.90;;;;;;4967822;28;20269;-62
2022/01/29 10:39:49;;;;;;;;;;;9.70;99.90;;;;;;4979002;28;20453;-59
2022/01/29 10:42:14;;;;;;;;;;;9.70;99.90;;;;;;4968922;28;20048;-59
2022/01/29 10:44:44;;;;;;;;;;;9.70;99.90;;;;;;4993976;28;19986;-64
2022/01/29 10:47:10;;;;;;;;;;;9.80;99.90;;;;;;4966122;28;19930;-62
2022/01/29 10:49:39;;;;;;;;;;;9.80;99.90;;;;;;4965957;28;19930;-63
2022/01/29 10:52:05;;;;;;;;;;;9.80;99.90;;;;;;4965385;28;19933;-62
2022/01/29 10:54:32;;;;;;;;;;;9.80;99.90;;;;;;4969762;28;20454;-60
2022/01/29 10:57:17;;;;;;;;;;;9.80;99.90;;;;;;4972141;28;19965;-63
2022/01/29 10:59:50;;;;;;;;;;;9.80;99.90;;;;;;4981436;28;19930;-63
2022/01/29 11:02:16;;;;;;;;;;;9.90;99.90;;;;;;4980975;28;20052;-62
2022/01/29 11:04:42;;;;;;;;;;;9.90;99.90;;;;;;4984544;28;19937;-64
2022/01/29 11:07:14;;;;;;;;;;;9.90;99.90;;;;;;4983305;28;19929;-64
2022/01/29 11:09:44;;;;;;;;;;;9.80;99.90;;;;;;4984285;28;19952;-57
2022/01/29 11:12:11;;;;;;;;;;;9.90;99.90;;;;;;4973076;28;19934;-56
2022/01/29 11:14:37;;;;;;;;;;;9.90;99.90;;;;;;4983462;28;19976;-59
2022/01/29 11:17:03;;;;;;;;;;;9.90;99.90;;;;;;4982242;28;19937;-55
2022/01/29 11:19:29;;;;;;;;;;;9.90;99.90;;;;;;4983036;28;20439;-56
2022/01/29 11:21:57;;;;;;;;;;;9.90;99.90;;;;;;4981496;28;19999;-56
2022/01/29 11:24:23;;;;;;;;;;;9.90;99.90;;;;;;4980564;28;20347;-59
2022/01/29 11:26:50;;;;;;;;;;;9.90;99.90;;;;;;4980960;28;19930;-57
2022/01/29 11:29:22;;;;;;;;;;;10.00;99.90;;;;;;4983057;28;19930;-57
2022/01/29 11:31:48;;;;;;;;;;;10.00;99.90;;;;;;4978950;28;19930;-56
2022/01/29 11:34:13;;;;;;;;;;;10.00;99.90;;;;;;4997383;28;19956;-59
2022/01/29 11:36:48;;;;;;;;;;;10.00;99.90;;;;;;4975540;28;19934;-59
2022/01/29 11:39:28;;;;;;;;;;;10.00;99.90;;;;;;4982390;28;20012;-59
2022/01/29 11:42:12;;;;;;;;;;;10.10;99.90;;;;;;4996702;28;19937;-57
2022/01/29 11:44:42;;;;;;;;;;;10.10;99.90;;;;;;4974231;28;19930;-55
2022/01/29 11:47:26;;;;;;;;;;;10.10;99.90;;;;;;4970412;28;19929;-55
2022/01/29 11:49:53;;;;;;;;;;;10.20;99.90;;;;;;4984285;28;20345;-55
2022/01/29 11:52:22;;;;;;;;;;;10.10;99.90;;;;;;4983507;28;19937;-59
2022/01/29 11:55:05;;;;;;;;;;;10.10;99.90;;;;;;4972661;28;20414;-56
2022/01/29 11:57:30;;;;;;;;;;;10.20;99.90;;;;;;4965098;28;19934;-56
2022/01/29 12:00:16;;;;;;;;;;;10.20;99.90;;;;;;4965014;28;19933;-58
2022/01/29 12:02:43;;;;;;;;;;;10.40;99.90;;;;;;4968163;28;19987;-55
2022/01/29 12:05:10;;;;;;;;;;;10.30;99.90;;;;;;4984276;28;19933;-57
2022/01/29 12:07:56;;;;;;;;;;;10.40;99.90;;;;;;4979728;28;19929;-56
2022/01/29 12:10:33;;;;;;;;;;;10.40;99.90;;;;;;4985055;28;19934;-55
2022/01/29 12:13:08;;;;;;;;;;;10.40;99.90;;;;;;4974897;28;20029;-55
2022/01/29 12:15:34;;;;;;;;;;;10.50;99.90;;;;;;4964457;28;20419;-55
2022/01/29 12:18:02;;;;;;;;;;;10.50;99.90;;;;;;4965409;28;20415;-54
2022/01/29 12:20:28;;;;;;;;;;;10.60;99.90;;;;;;4974735;28;20138;-56
2022/01/29 12:22:58;;;;;;;;;;;10.60;99.90;;;;;;4983403;28;20053;-55
2022/01/29 12:25:27;;;;;;;;;;;10.60;99.90;;;;;;4964089;28;19937;-58
2022/01/29 12:27:55;;;;;;;;;;;10.70;99.90;;;;;;4970561;28;20038;-56
2022/01/29 12:30:29;;;;;;;;;;;10.70;99.90;;;;;;4978260;28;20486;-59
2022/01/29 12:32:55;;;;;;;;;;;10.80;99.90;;;;;;4979074;28;19969;-54
2022/01/29 12:35:21;;;;;;;;;;;10.80;99.90;;;;;;4964833;28;19934;-58
2022/01/29 12:37:54;;;;;;;;;;;10.80;99.90;;;;;;4968980;28;20048;-62
2022/01/29 12:40:21;;;;;;;;;;;10.80;99.90;;;;;;4974377;28;20462;-59
2022/01/29 12:42:56;;;;;;;;;;;10.90;99.90;;;;;;4969611;28;19930;-59
2022/01/29 12:45:23;;;;;;;;;;;10.90;99.90;;;;;;4980942;28;20024;-55
2022/01/29 12:47:49;;;;;;;;;;;10.90;99.90;;;;;;4980696;28;19999;-63
2022/01/29 12:50:18;;;;;;;;;;;10.90;99.90;;;;;;4981641;28;20387;-56
2022/01/29 12:52:44;;;;;;;;;;;11.90;99.90;;;;;;4983258;28;19945;-62
2022/01/29 12:55:11;;;;;;;;;;;10.90;99.90;;;;;;4981358;28;19930;-55
2022/01/29 12:57:47;;;;;;;;;;;10.90;99.90;;;;;;4980942;28;20405;-60
2022/01/29 13:00:14;;;;;;;;;;;10.80;99.90;;;;;;4981410;28;19953;-59
2022/01/29 13:02:40;;;;;;;;;;;10.90;99.90;;;;;;4979557;28;20046;-55
2022/01/29 13:05:06;;;;;;;;;;;10.90;99.90;;;;;;4981710;28;20060;-58
2022/01/29 13:07:35;;;;;;;;;;;11.00;99.90;;;;;;4977330;28;19941;-58
2022/01/29 13:10:05;;;;;;;;;;;11.10;99.90;;;;;;4981290;28;19933;-57
2022/01/29 13:12:41;;;;;;;;;;;11.10;99.90;;;;;;4980561;28;19940;-56
2022/01/29 13:15:07;;;;;;;;;;;11.10;99.90;;;;;;4980982;28;19956;-60
2022/01/29 13:17:33;;;;;;;;;;;11.00;99.90;;;;;;4979707;28;19933;-64
2022/01/29 13:20:00;;;;;;;;;;;11.00;99.90;;;;;;4978607;28;19930;-66
2022/01/29 13:22:26;;;;;;;;;;;11.00;99.90;;;;;;4980698;28;20305;-67
2022/01/29 13:25:00;;;;;;;;;;;11.10;99.90;;;;;;4979275;28;20313;-67
2022/01/29 13:27:29;;;;;;;;;;;11.10;99.90;;;;;;4980977;28;20388;-65
2022/01/29 13:30:26;;;;;;;;;;;11.20;99.90;;;;;;4980897;28;19930;-66
2022/01/29 13:32:53;;;;;;;;;;;11.20;99.90;;;;;;4979716;28;21027;-69
2022/01/29 13:35:23;;;;;;;;;;;11.20;99.90;;;;;;4988658;28;19973;-68
2022/01/29 13:37:56;;;;;;;;;;;11.30;99.90;;;;;;4971606;28;19937;-55
2022/01/29 13:40:36;;;;;;;;;;;9.90;99.90;;;;;;4964296;28;20308;-60
2022/01/29 13:43:06;;;;;;;;;;;11.40;99.90;;;;;;4967938;28;19930;-55
2022/01/29 13:45:34;;;;;;;;;;;11.50;99.90;;;;;;4963342;28;19934;-56
2022/01/29 13:48:01;;;;;;;;;;;11.40;99.90;;;;;;4964244;28;20033;-57
2022/01/29 13:50:29;;;;;;;;;;;11.50;99.90;;;;;;4978154;28;19930;-63
2022/01/29 13:53:08;;;;;;;;;;;11.50;99.90;;;;;;4979870;28;19975;-59
2022/01/29 13:55:35;;;;;;;;;;;11.50;99.90;;;;;;4981486;28;20075;-55
2022/01/29 13:58:03;;;;;;;;;;;11.60;99.90;;;;;;4977354;28;19929;-58
2022/01/29 14:00:48;;;;;;;;;;;11.50;99.90;;;;;;4981024;28;20431;-55
2022/01/29 14:03:14;;;;;;;;;;;11.50;99.90;;;;;;4977385;28;19930;-64
2022/01/29 14:05:39;;;;;;;;;;;11.60;99.90;;;;;;4980621;28;19930;-64
2022/01/29 14:08:20;;;;;;;;;;;11.40;99.90;;;;;;4983118;28;19929;-64
2022/01/29 14:10:56;;;;;;;;;;;11.40;99.90;;;;;;4976815;28;20387;-58
2022/01/29 14:13:26;;;;;;;;;;;11.30;99.90;;;;;;4979141;28;19940;-64
2022/01/29 14:15:52;;;;;;;;;;;11.30;99.90;;;;;;4976913;28;19930;-63
2022/01/29 14:18:18;;;;;;;;;;;11.30;99.90;;;;;;4984213;28;19930;-62
2022/01/29 14:20:43;;;;;;;;;;;11.30;99.90;;;;;;4983101;28;20245;-62
2022/01/29 14:23:09;;;;;;;;;;;11.30;99.90;;;;;;4964914;28;19936;-57
2022/01/29 14:25:35;;;;;;;;;;;11.30;99.90;;;;;;4977846;28;19937;-61
2022/01/29 14:28:00;;;;;;;;;;;11.20;99.90;;;;;;4977297;28;19977;-55
2022/01/29 14:30:27;;;;;;;;;;;11.30;99.90;;;;;;4974461;28;20017;-61
2022/01/29 14:32:53;;;;;;;;;;;11.30;99.90;;;;;;4982457;28;19930;-57
2022/01/29 14:35:19;;;;;;;;;;;11.30;99.90;;;;;;4977439;28;19930;-61
2022/01/29 14:37:45;;;;;;;;;;;11.30;99.90;;;;;;4968840;28;20003;-56
2022/01/29 14:40:12;;;;;;;;;;;11.50;99.90;;;;;;4980148;28;20651;-55